Grand Marais, Minnesota
Current Conditions -  °F | °C
As of 3:34 PM on Thursday 23 Oct 2014 (Local Time) from KCKC Reporting Station
Haze Haze  
Wind Chill:   Ceiling: 200
Heat Index:   Visibility: 0.75mi
Dew Point:   Wind: 3mph
Humidity: 93%   Direction: 190°S
Pressure: 29.94"   Gusts: NA
Location:  47.75°N, 90.33°W
Report Text: KCKC 232034Z AUTO 19003KT 3/4SM BR OVC002 07/06 A2994 RMK AO2
Loading
Personal Weather Stations






























Interactive Weather Map New forecast layout! Learn more

10-Day Weather Forecast

Advertisements
Track Severe Weather on mobile